Time;durP1;ratioP1;P1;durP2;ratioP2;P2;SDS_P1;SDS_P2;PMS_P1;PMS_P2;Temp;Humidity;BMP_temperature;BMP_pressure;BME280_temperature;BME280_humidity;BME280_pressure;Samples;Min_cycle;Max_cycle;Signal;HPM_P1;HPM_P2
2023/10/08 00:00:59;;;;;;;0.10;0.10;;;;;;;;;;4924107;28;20046;-88
2023/10/08 00:03:29;;;;;;;0.10;0.10;;;;;;;;;;4923706;28;20547;-89
2023/10/08 00:05:55;;;;;;;0.10;0.10;;;;;;;;;;4924183;28;20042;-89
2023/10/08 00:08:21;;;;;;;0.10;0.10;;;;;;;;;;4923819;28;20050;-89
2023/10/08 00:10:47;;;;;;;0.10;0.10;;;;;;;;;;4939449;28;20404;-88
2023/10/08 00:13:16;;;;;;;0.10;0.10;;;;;;;;;;4939746;28;20053;-89
2023/10/08 00:15:52;;;;;;;0.10;0.10;;;;;;;;;;4939472;28;20137;-89
2023/10/08 00:18:22;;;;;;;0.10;0.10;;;;;;;;;;4955635;28;20042;-89
2023/10/08 00:23:35;;;;;;;0.10;0.10;;;;;;;;;;4941787;28;20043;-89
2023/10/08 00:26:06;;;;;;;0.10;0.10;;;;;;;;;;4956978;28;20038;-89
2023/10/08 00:28:32;;;;;;;0.10;0.10;;;;;;;;;;4958659;28;20089;-89
2023/10/08 00:31:13;;;;;;;0.10;0.10;;;;;;;;;;4958657;28;20051;-89
2023/10/08 00:33:39;;;;;;;0.10;0.10;;;;;;;;;;4944208;28;20363;-89
2023/10/08 00:36:17;;;;;;;0.10;0.10;;;;;;;;;;4958692;28;20480;-89
2023/10/08 00:38:44;;;;;;;0.10;0.10;;;;;;;;;;4944263;28;20504;-89
2023/10/08 00:41:16;;;;;;;0.10;0.10;;;;;;;;;;4958881;28;20061;-89
2023/10/08 00:43:48;;;;;;;0.65;0.30;;;;;;;;;;4943117;28;20435;-89
2023/10/08 00:46:21;;;;;;;0.10;0.10;;;;;;;;;;4958468;28;20133;-89
2023/10/08 00:48:48;;;;;;;0.10;0.10;;;;;;;;;;4943707;28;20061;-89
2023/10/08 00:54:06;;;;;;;0.10;0.10;;;;;;;;;;4943628;28;20503;-88
2023/10/08 00:59:44;;;;;;;0.10;0.10;;;;;;;;;;4926654;28;19937;-89
2023/10/08 01:02:14;;;;;;;0.20;0.20;;;;;;;;;;4927980;28;20163;-89
2023/10/08 01:04:40;;;;;;;0.10;0.10;;;;;;;;;;4942712;28;20479;-88
2023/10/08 01:07:12;;;;;;;0.10;0.10;;;;;;;;;;4957874;28;20057;-88
2023/10/08 01:09:40;;;;;;;0.10;0.10;;;;;;;;;;4943102;28;20523;-89
2023/10/08 01:12:19;;;;;;;0.10;0.10;;;;;;;;;;4926406;28;20129;-89
2023/10/08 01:14:46;;;;;;;0.10;0.10;;;;;;;;;;4927007;28;20077;-88
2023/10/08 01:17:19;;;;;;;0.10;0.10;;;;;;;;;;4941998;28;20408;-89
2023/10/08 01:19:50;;;;;;;0.10;0.10;;;;;;;;;;4926891;28;20056;-88
2023/10/08 01:22:21;;;;;;;0.10;0.10;;;;;;;;;;4941837;28;20093;-89
2023/10/08 01:24:48;;;;;;;0.10;0.10;;;;;;;;;;4957790;28;20046;-89
2023/10/08 01:27:24;;;;;;;0.10;0.10;;;;;;;;;;4941763;28;20072;-89
2023/10/08 01:29:53;;;;;;;0.10;0.10;;;;;;;;;;4942309;28;20046;-89
2023/10/08 01:32:20;;;;;;;0.10;0.10;;;;;;;;;;4925591;28;20058;-89
2023/10/08 01:34:46;;;;;;;0.10;0.10;;;;;;;;;;4941651;28;20526;-88
2023/10/08 01:37:18;;;;;;;0.10;0.10;;;;;;;;;;4957200;28;20164;-89
2023/10/08 01:39:45;;;;;;;0.10;0.10;;;;;;;;;;4925634;28;20074;-89
2023/10/08 01:42:17;;;;;;;0.10;0.10;;;;;;;;;;4941523;28;20043;-89
2023/10/08 01:44:46;;;;;;;0.10;0.10;;;;;;;;;;4957345;28;20399;-89
2023/10/08 01:47:12;;;;;;;0.13;0.13;;;;;;;;;;4926138;28;20034;-89
2023/10/08 01:49:39;;;;;;;0.10;0.10;;;;;;;;;;4925545;28;20459;-88
2023/10/08 01:52:07;;;;;;;0.10;0.10;;;;;;;;;;4941422;28;20046;-89
2023/10/08 01:54:35;;;;;;;0.10;0.10;;;;;;;;;;4941430;28;20058;-89
2023/10/08 01:57:02;;;;;;;0.10;0.10;;;;;;;;;;4925857;28;20440;-89
2023/10/08 01:59:31;;;;;;;0.10;0.10;;;;;;;;;;4925346;28;20480;-88
2023/10/08 02:01:57;;;;;;;0.20;0.20;;;;;;;;;;4941004;28;20078;-88
2023/10/08 02:04:23;;;;;;;0.10;0.10;;;;;;;;;;4925177;28;20077;-88
2023/10/08 02:06:50;;;;;;;0.15;0.15;;;;;;;;;;4941074;28;20074;-88
2023/10/08 02:09:16;;;;;;;0.10;0.10;;;;;;;;;;4941168;28;20042;-88
2023/10/08 02:11:46;;;;;;;0.10;0.10;;;;;;;;;;4925369;28;20047;-88
2023/10/08 02:14:15;;;;;;;0.10;0.10;;;;;;;;;;4925173;28;20046;-88
2023/10/08 02:16:42;;;;;;;0.10;0.10;;;;;;;;;;4941224;28;20491;-88
2023/10/08 02:19:10;;;;;;;0.10;0.10;;;;;;;;;;4940842;28;20047;-88
2023/10/08 02:21:37;;;;;;;0.10;0.10;;;;;;;;;;4956723;28;20070;-88
2023/10/08 02:24:04;;;;;;;0.10;0.10;;;;;;;;;;4956486;28;20091;-88
2023/10/08 02:26:30;;;;;;;0.10;0.10;;;;;;;;;;4940779;28;20098;-88
2023/10/08 02:28:59;;;;;;;0.10;0.10;;;;;;;;;;4940782;28;20051;-88
2023/10/08 02:31:25;;;;;;;0.10;0.10;;;;;;;;;;4940384;28;20047;-88
2023/10/08 02:33:51;;;;;;;0.10;0.10;;;;;;;;;;4924777;28;20038;-88
2023/10/08 02:36:19;;;;;;;0.10;0.10;;;;;;;;;;4956640;28;20447;-88
2023/10/08 02:38:45;;;;;;;0.10;0.10;;;;;;;;;;4940294;28;20035;-88
2023/10/08 02:41:16;;;;;;;0.10;0.10;;;;;;;;;;4940362;28;20049;-88
2023/10/08 02:43:44;;;;;;;0.10;0.10;;;;;;;;;;4924522;28;20077;-89
2023/10/08 02:46:14;;;;;;;0.10;0.10;;;;;;;;;;4924524;28;20055;-89
2023/10/08 02:48:41;;;;;;;0.10;0.10;;;;;;;;;;4940324;28;20090;-88
2023/10/08 02:51:13;;;;;;;2.55;0.20;;;;;;;;;;4940173;28;20270;-88
2023/10/08 02:53:42;;;;;;;0.10;0.10;;;;;;;;;;4956183;28;20050;-88
2023/10/08 02:56:13;;;;;;;0.10;0.10;;;;;;;;;;4924870;28;20073;-88
2023/10/08 02:58:39;;;;;;;0.10;0.10;;;;;;;;;;4973429;28;20400;-88
2023/10/08 03:01:05;;;;;;;0.10;0.10;;;;;;;;;;4956135;28;20043;-88
2023/10/08 03:03:32;;;;;;;0.10;0.10;;;;;;;;;;4956334;28;20039;-88
2023/10/08 03:05:58;;;;;;;0.10;0.10;;;;;;;;;;4973638;28;20038;-89
2023/10/08 03:08:24;;;;;;;0.10;0.10;;;;;;;;;;4925000;28;20095;-89
2023/10/08 03:10:55;;;;;;;0.10;0.10;;;;;;;;;;4940540;28;20054;-88
2023/10/08 03:13:21;;;;;;;0.10;0.10;;;;;;;;;;4941062;28;20099;-88
2023/10/08 03:16:07;;;;;;;0.10;0.10;;;;;;;;;;4940288;28;20050;-88
2023/10/08 03:18:36;;;;;;;0.10;0.10;;;;;;;;;;4955935;28;20412;-88
2023/10/08 03:21:19;;;;;;;0.10;0.10;;;;;;;;;;4955891;28;20106;-88
2023/10/08 03:23:47;;;;;;;0.10;0.10;;;;;;;;;;4955913;28;20047;-88
2023/10/08 03:26:32;;;;;;;0.10;0.10;;;;;;;;;;4940231;28;20480;-88
2023/10/08 03:28:59;;;;;;;0.10;0.10;;;;;;;;;;4927009;28;20054;-88
2023/10/08 03:34:14;;;;;;;0.10;0.10;;;;;;;;;;4955674;28;20043;-88
2023/10/08 03:36:46;;;;;;;0.10;0.10;;;;;;;;;;4940417;28;20087;-88
2023/10/08 03:39:13;;;;;;;0.10;0.10;;;;;;;;;;4940828;28;20042;-88
2023/10/08 03:41:40;;;;;;;0.10;0.10;;;;;;;;;;4939822;28;20138;-88
2023/10/08 03:44:12;;;;;;;0.10;0.10;;;;;;;;;;4939661;28;20481;-88
2023/10/08 03:46:42;;;;;;;0.10;0.10;;;;;;;;;;4940341;28;20140;-87
2023/10/08 03:51:48;;;;;;;0.10;0.10;;;;;;;;;;4941247;28;20046;-88
2023/10/08 03:56:45;;;;;;;0.10;0.10;;;;;;;;;;4955772;28;20049;-88
2023/10/08 04:01:59;;;;;;;0.10;0.10;;;;;;;;;;4945748;28;20050;-88
2023/10/08 04:04:48;;;;;;;0.10;0.10;;;;;;;;;;4943807;28;20393;-88
2023/10/08 04:12:50;;;;;;;0.10;0.10;;;;;;;;;;4932857;28;20057;-88
2023/10/08 04:15:16;;;;;;;0.10;0.10;;;;;;;;;;4958883;28;20048;-88
2023/10/08 04:17:45;;;;;;;0.10;0.10;;;;;;;;;;4943065;28;20047;-88
2023/10/08 04:23:20;;;;;;;0.10;0.10;;;;;;;;;;4890304;29;20040;-88
2023/10/08 04:25:47;;;;;;;0.13;0.13;;;;;;;;;;4885507;29;20044;-88
2023/10/08 04:28:18;;;;;;;0.10;0.10;;;;;;;;;;4912968;28;20054;-88
2023/10/08 04:30:47;;;;;;;0.10;0.10;;;;;;;;;;4943517;28;20043;-89
2023/10/08 04:33:14;;;;;;;0.10;0.10;;;;;;;;;;4943353;28;20087;-88
2023/10/08 04:35:51;;;;;;;0.10;0.10;;;;;;;;;;4926763;28;20043;-88
2023/10/08 04:38:21;;;;;;;0.10;0.10;;;;;;;;;;4928348;28;20046;-88
2023/10/08 04:40:51;;;;;;;0.10;0.10;;;;;;;;;;4942511;28;20043;-88
2023/10/08 04:43:27;;;;;;;0.10;0.10;;;;;;;;;;4958349;28;20057;-88
2023/10/08 04:45:57;;;;;;;0.10;0.10;;;;;;;;;;4942751;28;20063;-88
2023/10/08 04:48:29;;;;;;;0.10;0.10;;;;;;;;;;4942623;28;20385;-88
2023/10/08 04:50:58;;;;;;;;;;;;;;;;;;4943543;28;20042;-88
2023/10/08 04:53:31;;;;;;;0.10;0.10;;;;;;;;;;4942150;28;19918;-88
2023/10/08 04:56:02;;;;;;;0.10;0.10;;;;;;;;;;4942998;28;20078;-88
2023/10/08 04:58:33;;;;;;;0.10;0.10;;;;;;;;;;4942790;28;20050;-89
2023/10/08 05:01:16;;;;;;;0.10;0.10;;;;;;;;;;4958180;28;20566;-88
2023/10/08 05:03:54;;;;;;;0.10;0.10;;;;;;;;;;4942255;28;20042;-88
2023/10/08 05:06:39;;;;;;;0.10;0.10;;;;;;;;;;4943706;28;20094;-88
2023/10/08 05:09:12;;;;;;;0.10;0.10;;;;;;;;;;4944892;28;20043;-88
2023/10/08 05:17:21;;;;;;;0.10;0.10;;;;;;;;;;4959496;28;20046;-88
2023/10/08 05:19:48;;;;;;;0.10;0.10;;;;;;;;;;4944896;28;20309;-88
2023/10/08 05:22:18;;;;;;;0.10;0.10;;;;;;;;;;4942048;28;20039;-87
2023/10/08 05:27:56;;;;;;;0.10;0.10;;;;;;;;;;4944320;28;20065;-88
2023/10/08 05:30:28;;;;;;;0.10;0.10;;;;;;;;;;4944769;28;20053;-87
2023/10/08 05:38:22;;;;;;;0.10;0.10;;;;;;;;;;4957548;28;20053;-88
2023/10/08 05:43:48;;;;;;;0.10;0.10;;;;;;;;;;4942689;28;20078;-88
2023/10/08 05:52:10;;;;;;;0.10;0.10;;;;;;;;;;4943178;28;20179;-89
2023/10/08 06:13:13;;;;;;;0.10;0.10;;;;;;;;;;4942156;28;20531;-89
2023/10/08 06:16:05;;;;;;;0.10;0.10;;;;;;;;;;4941199;28;20046;-90
2023/10/08 06:18:31;;;;;;;0.10;0.10;;;;;;;;;;4944193;28;20053;-90
2023/10/08 06:21:08;;;;;;;0.10;0.10;;;;;;;;;;4941006;28;20483;-90
2023/10/08 06:23:37;;;;;;;0.10;0.10;;;;;;;;;;4955879;28;20531;-90
2023/10/08 06:26:14;;;;;;;0.10;0.10;;;;;;;;;;4924883;28;20059;-92
2023/10/08 06:28:43;;;;;;;0.10;0.10;;;;;;;;;;4926474;28;20494;-89
2023/10/08 06:31:16;;;;;;;0.10;0.10;;;;;;;;;;4940699;28;20053;-89
2023/10/08 06:33:42;;;;;;;0.10;0.10;;;;;;;;;;4940640;28;20059;-89
2023/10/08 06:38:34;;;;;;;0.10;0.10;;;;;;;;;;4941724;28;20522;-90
2023/10/08 06:41:00;;;;;;;0.10;0.10;;;;;;;;;;4941109;28;20078;-88
2023/10/08 06:43:29;;;;;;;0.20;0.20;;;;;;;;;;4940292;28;20050;-88
2023/10/08 06:45:58;;;;;;;0.10;0.10;;;;;;;;;;4956015;28;20047;-91
2023/10/08 06:48:24;;;;;;;0.10;0.10;;;;;;;;;;4940704;28;20474;-88
2023/10/08 06:50:51;;;;;;;0.10;0.10;;;;;;;;;;4940275;28;20106;-88
2023/10/08 06:53:21;;;;;;;0.10;0.10;;;;;;;;;;4940299;28;20043;-89
2023/10/08 06:55:56;;;;;;;0.10;0.10;;;;;;;;;;4940865;28;20061;-88
2023/10/08 06:58:25;;;;;;;0.10;0.10;;;;;;;;;;4940117;28;20125;-89
2023/10/08 07:00:51;;;;;;;0.10;0.10;;;;;;;;;;4924237;28;20051;-88
2023/10/08 07:03:17;;;;;;;0.10;0.10;;;;;;;;;;4939947;28;20043;-88
2023/10/08 07:05:59;;;;;;;0.10;0.10;;;;;;;;;;4939950;28;20042;-89
2023/10/08 07:08:26;;;;;;;0.10;0.10;;;;;;;;;;4941268;28;20121;-88
2023/10/08 07:10:53;;;;;;;0.10;0.10;;;;;;;;;;4940167;28;20392;-88
2023/10/08 07:13:21;;;;;;;0.10;0.10;;;;;;;;;;4939811;28;20427;-89
2023/10/08 07:15:49;;;;;;;0.10;0.10;;;;;;;;;;4924747;28;20102;-89
2023/10/08 07:18:21;;;;;;;0.10;0.10;;;;;;;;;;4924397;28;20191;-88
2023/10/08 07:20:53;;;;;;;0.10;0.10;;;;;;;;;;4925250;28;20046;-88
2023/10/08 07:23:19;;;;;;;0.10;0.10;;;;;;;;;;4940336;28;20046;-89
2023/10/08 07:25:53;;;;;;;0.10;0.10;;;;;;;;;;4939971;28;20050;-89
2023/10/08 07:28:21;;;;;;;0.10;0.10;;;;;;;;;;4924513;28;20042;-88
2023/10/08 07:30:49;;;;;;;0.10;0.10;;;;;;;;;;4924490;28;20043;-89
2023/10/08 07:33:17;;;;;;;0.10;0.10;;;;;;;;;;4955766;28;20493;-90
2023/10/08 07:35:57;;;;;;;0.10;0.10;;;;;;;;;;4943435;28;20046;-88
2023/10/08 07:38:23;;;;;;;0.10;0.10;;;;;;;;;;4928868;28;20057;-86
2023/10/08 07:40:49;;;;;;;0.10;0.10;;;;;;;;;;4959626;28;20086;-85
2023/10/08 07:43:19;;;;;;;0.10;0.10;;;;;;;;;;4928002;28;20126;-85
2023/10/08 07:45:45;;;;;;;0.10;0.10;;;;;;;;;;4955194;28;20054;-86
2023/10/08 07:48:13;;;;;;;0.10;0.10;;;;;;;;;;4962975;28;20038;-85
2023/10/08 07:50:46;;;;;;;0.10;0.10;;;;;;;;;;4947429;28;20050;-85
2023/10/08 07:53:17;;;;;;;0.10;0.10;;;;;;;;;;4946762;28;20510;-86
2023/10/08 07:55:45;;;;;;;0.10;0.10;;;;;;;;;;4979649;28;20049;-86
2023/10/08 07:58:11;;;;;;;0.10;0.10;;;;;;;;;;4978826;28;20034;-86
2023/10/08 08:00:39;;;;;;;0.10;0.10;;;;;;;;;;4946846;28;20035;-86
2023/10/08 08:03:05;;;;;;;0.10;0.10;;;;;;;;;;4946604;28;20046;-86
2023/10/08 08:05:31;;;;;;;0.10;0.10;;;;;;;;;;4978743;28;20042;-86
2023/10/08 08:08:05;;;;;;;0.10;0.10;;;;;;;;;;4978703;28;20194;-86
2023/10/08 08:10:36;;;;;;;0.10;0.10;;;;;;;;;;4947403;28;20448;-86
2023/10/08 08:13:05;;;;;;;0.10;0.10;;;;;;;;;;4946981;28;20038;-86
2023/10/08 08:15:32;;;;;;;0.10;0.10;;;;;;;;;;4978485;28;20181;-87
2023/10/08 08:17:58;;;;;;;0.10;0.10;;;;;;;;;;4962959;28;20101;-86
2023/10/08 08:20:38;;;;;;;0.10;0.10;;;;;;;;;;4946432;28;20510;-86
2023/10/08 08:23:08;;;;;;;0.10;0.10;;;;;;;;;;4962144;28;20096;-85
2023/10/08 08:26:06;;;;;;;0.10;0.10;;;;;;;;;;4977917;28;20042;-86
2023/10/08 08:28:32;;;;;;;0.10;0.10;;;;;;;;;;4949647;28;20125;-86
2023/10/08 08:31:04;;;;;;;0.10;0.10;;;;;;;;;;4978270;28;20098;-86
2023/10/08 08:33:52;;;;;;;0.10;0.10;;;;;;;;;;4961818;28;20046;-86
2023/10/08 08:36:18;;;;;;;0.10;0.10;;;;;;;;;;4981168;28;20050;-85
2023/10/08 08:38:44;;;;;;;0.20;0.20;;;;;;;;;;4978418;28;20065;-86
2023/10/08 08:41:12;;;;;;;0.10;0.10;;;;;;;;;;4945950;28;20219;-86
2023/10/08 08:43:43;;;;;;;0.10;0.10;;;;;;;;;;4962247;28;20076;-86
2023/10/08 08:46:12;;;;;;;0.10;0.10;;;;;;;;;;4945532;28;20407;-88
2023/10/08 08:48:38;;;;;;;0.10;0.10;;;;;;;;;;4946212;28;20046;-87
2023/10/08 08:51:06;;;;;;;0.20;0.20;;;;;;;;;;4961952;28;20407;-87
2023/10/08 08:53:33;;;;;;;0.10;0.10;;;;;;;;;;4962067;28;20395;-87
2023/10/08 08:56:00;;;;;;;0.10;0.10;;;;;;;;;;4945900;28;20046;-87
2023/10/08 08:58:26;;;;;;;0.10;0.10;;;;;;;;;;4946062;28;20483;-85
2023/10/08 09:00:52;;;;;;;0.10;0.10;;;;;;;;;;4961709;28;20050;-90
2023/10/08 09:03:19;;;;;;;0.10;0.10;;;;;;;;;;4945593;28;20038;-85
2023/10/08 09:05:50;;;;;;;0.10;0.10;;;;;;;;;;4960935;28;20085;-85
2023/10/08 09:08:18;;;;;;;0.10;0.10;;;;;;;;;;4962709;28;20046;-85
2023/10/08 09:10:53;;;;;;;0.10;0.10;;;;;;;;;;4961813;28;20049;-85
2023/10/08 09:13:21;;;;;;;0.10;0.10;;;;;;;;;;4947173;28;20381;-85
2023/10/08 09:15:47;;;;;;;0.10;0.10;;;;;;;;;;4961533;28;20081;-84
2023/10/08 09:18:14;;;;;;;0.10;0.10;;;;;;;;;;4977867;28;20101;-86
2023/10/08 09:20:43;;;;;;;0.10;0.10;;;;;;;;;;4961244;28;20042;-86
2023/10/08 09:23:12;;;;;;;0.10;0.10;;;;;;;;;;4978077;28;20055;-86
2023/10/08 09:25:42;;;;;;;0.10;0.10;;;;;;;;;;4961585;28;20042;-86
2023/10/08 09:28:08;;;;;;;0.10;0.10;;;;;;;;;;4961321;28;20117;-86
2023/10/08 09:30:39;;;;;;;0.10;0.10;;;;;;;;;;4961299;28;20559;-85
2023/10/08 09:33:10;;;;;;;0.10;0.10;;;;;;;;;;4962280;28;20046;-86
2023/10/08 09:35:37;;;;;;;0.10;0.10;;;;;;;;;;4945881;28;20046;-85
2023/10/08 09:38:03;;;;;;;0.10;0.10;;;;;;;;;;4977336;28;20039;-86
2023/10/08 09:40:29;;;;;;;0.10;0.10;;;;;;;;;;4995041;28;20038;-86
2023/10/08 09:42:56;;;;;;;0.10;0.10;;;;;;;;;;4961631;28;20038;-86
2023/10/08 09:45:22;;;;;;;0.10;0.10;;;;;;;;;;4961015;28;20137;-86
2023/10/08 09:47:55;;;;;;;0.10;0.10;;;;;;;;;;4961348;28;20128;-86
2023/10/08 09:50:39;;;;;;;0.10;0.10;;;;;;;;;;4961217;28;20042;-85
2023/10/08 09:53:19;;;;;;;0.10;0.10;;;;;;;;;;4945009;28;20078;-87
2023/10/08 09:55:50;;;;;;;0.10;0.10;;;;;;;;;;4945882;28;20038;-87
2023/10/08 09:58:16;;;;;;;0.10;0.10;;;;;;;;;;4960481;28;20488;-89
2023/10/08 10:00:44;;;;;;;0.38;0.38;;;;;;;;;;4946779;28;20041;-87
2023/10/08 10:03:12;;;;;;;0.10;0.10;;;;;;;;;;4944907;28;20482;-88
2023/10/08 10:05:38;;;;;;;0.10;0.10;;;;;;;;;;4945986;28;20038;-88
2023/10/08 10:08:09;;;;;;;0.10;0.10;;;;;;;;;;4945498;28;20129;-85
2023/10/08 10:10:38;;;;;;;0.15;0.15;;;;;;;;;;4960667;28;20089;-87
2023/10/08 10:13:07;;;;;;;0.10;0.10;;;;;;;;;;4961115;28;20053;-87
2023/10/08 10:15:34;;;;;;;0.10;0.10;;;;;;;;;;4960874;28;20081;-86
2023/10/08 10:18:14;;;;;;;0.10;0.10;;;;;;;;;;4944977;28;20134;-89
2023/10/08 10:20:41;;;;;;;0.10;0.10;;;;;;;;;;4960565;28;20057;-84
2023/10/08 10:23:26;;;;;;;0.10;0.10;;;;;;;;;;4960814;28;20050;-84
2023/10/08 10:25:54;;;;;;;0.10;0.10;;;;;;;;;;4976285;28;20065;-85
2023/10/08 10:28:23;;;;;;;0.10;0.10;;;;;;;;;;4976197;28;20038;-85
2023/10/08 10:30:50;;;;;;;0.10;0.10;;;;;;;;;;4960094;28;20042;-85
2023/10/08 10:33:16;;;;;;;0.10;0.10;;;;;;;;;;4943951;28;20411;-85
2023/10/08 10:35:43;;;;;;;0.10;0.10;;;;;;;;;;4959858;28;20046;-85
2023/10/08 10:38:13;;;;;;;0.15;0.15;;;;;;;;;;4959929;28;20140;-85
2023/10/08 10:40:39;;;;;;;0.10;0.10;;;;;;;;;;4960260;28;20086;-85
2023/10/08 10:43:15;;;;;;;0.10;0.10;;;;;;;;;;4959940;28;20082;-85
2023/10/08 10:45:46;;;;;;;0.20;0.20;;;;;;;;;;4959490;28;20050;-85
2023/10/08 10:53:29;;;;;;;0.10;0.10;;;;;;;;;;4976016;28;19921;-83
2023/10/08 10:56:09;;;;;;;0.10;0.10;;;;;;;;;;4959790;28;20061;-85
2023/10/08 10:58:39;;;;;;;0.13;0.13;;;;;;;;;;4945776;28;20054;-84
2023/10/08 11:01:23;;;;;;;0.10;0.10;;;;;;;;;;4975648;28;20046;-85
2023/10/08 11:03:52;;;;;;;0.10;0.10;;;;;;;;;;4945883;28;20068;-85
2023/10/08 11:06:25;;;;;;;0.10;0.10;;;;;;;;;;4959641;28;20038;-85
2023/10/08 11:08:52;;;;;;;0.20;0.20;;;;;;;;;;4959636;28;20046;-85
2023/10/08 11:11:18;;;;;;;0.10;0.10;;;;;;;;;;4959449;28;20046;-85
2023/10/08 11:13:51;;;;;;;0.47;0.20;;;;;;;;;;4975415;28;20070;-85
2023/10/08 11:16:19;;;;;;;0.10;0.10;;;;;;;;;;4975647;28;20042;-86
2023/10/08 11:18:50;;;;;;;0.10;0.10;;;;;;;;;;4943900;28;20444;-85
2023/10/08 11:21:22;;;;;;;0.10;0.10;;;;;;;;;;4959854;28;20050;-85
2023/10/08 11:24:08;;;;;;;0.10;0.10;;;;;;;;;;4959328;28;20038;-85
2023/10/08 11:26:38;;;;;;;0.10;0.10;;;;;;;;;;4975307;28;20042;-85
2023/10/08 11:29:05;;;;;;;0.10;0.10;;;;;;;;;;4959157;28;20042;-84
2023/10/08 11:31:33;;;;;;;0.10;0.10;;;;;;;;;;4959703;28;20480;-84
2023/10/08 11:34:08;;;;;;;0.10;0.10;;;;;;;;;;4975367;28;20131;-85
2023/10/08 11:36:43;;;;;;;0.10;0.10;;;;;;;;;;4944135;28;20484;-85
2023/10/08 11:39:21;;;;;;;0.10;0.10;;;;;;;;;;4959222;28;20050;-84
2023/10/08 11:41:56;;;;;;;0.10;0.10;;;;;;;;;;4975519;28;20187;-84
2023/10/08 11:44:23;;;;;;;0.10;0.10;;;;;;;;;;4974115;28;20042;-85
2023/10/08 11:46:52;;;;;;;0.20;0.20;;;;;;;;;;4924410;28;20474;-85
2023/10/08 11:49:18;;;;;;;0.10;0.10;;;;;;;;;;4940101;28;20027;-85
2023/10/08 11:51:48;;;;;;;0.10;0.10;;;;;;;;;;4955904;28;20038;-85
2023/10/08 11:54:14;;;;;;;0.15;0.15;;;;;;;;;;4972907;28;20492;-85
2023/10/08 11:56:40;;;;;;;0.10;0.10;;;;;;;;;;4939929;28;20050;-84
2023/10/08 11:59:08;;;;;;;0.10;0.10;;;;;;;;;;4940271;28;20084;-85
2023/10/08 12:01:41;;;;;;;0.10;0.10;;;;;;;;;;4924179;28;20087;-86
2023/10/08 12:04:12;;;;;;;0.10;0.10;;;;;;;;;;4940459;28;20165;-86
2023/10/08 12:06:38;;;;;;;0.13;0.13;;;;;;;;;;4924396;28;20062;-86
2023/10/08 12:09:11;;;;;;;0.20;0.20;;;;;;;;;;4923751;28;20125;-85
2023/10/08 12:11:39;;;;;;;0.10;0.10;;;;;;;;;;4925388;28;20043;-85
2023/10/08 12:14:05;;;;;;;0.10;0.10;;;;;;;;;;4940184;28;20134;-86
2023/10/08 12:16:35;;;;;;;0.20;0.20;;;;;;;;;;4955547;28;20486;-85
2023/10/08 12:19:01;;;;;;;0.10;0.10;;;;;;;;;;4940384;28;20054;-85
2023/10/08 12:21:29;;;;;;;0.10;0.10;;;;;;;;;;4942289;28;20046;-86
2023/10/08 12:23:55;;;;;;;0.10;0.10;;;;;;;;;;4927718;28;20039;-87
2023/10/08 12:26:21;;;;;;;0.20;0.20;;;;;;;;;;4943276;28;20098;-86
2023/10/08 12:28:51;;;;;;;0.10;0.10;;;;;;;;;;4943204;28;20043;-87
2023/10/08 12:31:21;;;;;;;0.10;0.10;;;;;;;;;;4927793;28;20055;-86
2023/10/08 12:33:47;;;;;;;0.10;0.10;;;;;;;;;;4928163;28;20153;-86
2023/10/08 12:36:13;;;;;;;0.10;0.10;;;;;;;;;;4926946;28;20050;-87
2023/10/08 12:38:41;;;;;;;0.10;0.10;;;;;;;;;;4943118;28;20137;-86
2023/10/08 12:41:13;;;;;;;0.20;0.20;;;;;;;;;;4943002;28;20053;-86
2023/10/08 12:43:42;;;;;;;0.20;0.20;;;;;;;;;;4943639;28;20074;-85
2023/10/08 12:46:10;;;;;;;0.10;0.10;;;;;;;;;;4957585;28;20121;-87
2023/10/08 12:48:38;;;;;;;0.20;0.20;;;;;;;;;;4962577;28;20097;-86
2023/10/08 12:51:06;;;;;;;0.10;0.10;;;;;;;;;;4978234;28;20069;-85
2023/10/08 12:53:36;;;;;;;0.10;0.10;;;;;;;;;;4961954;28;20452;-86
2023/10/08 12:56:15;;;;;;;0.10;0.10;;;;;;;;;;4962081;28;20092;-85
2023/10/08 12:58:43;;;;;;;0.10;0.10;;;;;;;;;;4962711;28;20090;-86
2023/10/08 13:01:09;;;;;;;0.10;0.10;;;;;;;;;;4945726;28;20077;-86
2023/10/08 13:03:41;;;;;;;0.10;0.10;;;;;;;;;;4961300;28;20046;-86
2023/10/08 13:06:11;;;;;;;0.10;0.10;;;;;;;;;;4994751;28;20039;-86
2023/10/08 13:08:37;;;;;;;0.10;0.10;;;;;;;;;;4977456;28;20049;-85
2023/10/08 13:11:04;;;;;;;0.10;0.10;;;;;;;;;;4977458;28;20488;-85
2023/10/08 13:13:33;;;;;;;0.10;0.10;;;;;;;;;;4977671;28;20058;-85
2023/10/08 13:16:02;;;;;;;0.10;0.10;;;;;;;;;;4961158;28;20487;-85
2023/10/08 13:18:29;;;;;;;0.10;0.10;;;;;;;;;;4961718;28;20076;-85
2023/10/08 13:20:55;;;;;;;0.10;0.10;;;;;;;;;;4960825;28;20085;-85
2023/10/08 13:23:23;;;;;;;0.10;0.10;;;;;;;;;;4977224;28;20046;-86
2023/10/08 13:26:03;;;;;;;0.10;0.10;;;;;;;;;;4961304;28;20049;-85
2023/10/08 13:28:29;;;;;;;0.10;0.10;;;;;;;;;;4961139;28;20046;-85
2023/10/08 13:30:55;;;;;;;0.10;0.10;;;;;;;;;;4960984;28;20042;-85
2023/10/08 13:33:24;;;;;;;0.10;0.10;;;;;;;;;;4960423;28;20046;-84
2023/10/08 13:35:50;;;;;;;0.10;0.10;;;;;;;;;;4994703;28;20042;-85
2023/10/08 13:38:19;;;;;;;0.10;0.10;;;;;;;;;;4977007;28;20479;-85
2023/10/08 13:41:06;;;;;;;0.10;0.10;;;;;;;;;;4976772;28;20046;-86
2023/10/08 13:43:35;;;;;;;0.10;0.10;;;;;;;;;;4961044;28;20072;-86
2023/10/08 13:46:04;;;;;;;0.10;0.10;;;;;;;;;;4960683;28;20419;-86
2023/10/08 13:48:32;;;;;;;0.20;0.20;;;;;;;;;;4961083;28;20098;-85
2023/10/08 13:50:59;;;;;;;0.10;0.10;;;;;;;;;;4945277;28;20053;-86
2023/10/08 13:53:29;;;;;;;0.20;0.20;;;;;;;;;;4960690;28;20050;-86
2023/10/08 13:56:00;;;;;;;0.10;0.10;;;;;;;;;;4961057;28;20513;-88
2023/10/08 13:58:28;;;;;;;0.10;0.10;;;;;;;;;;4960935;28;20099;-88
2023/10/08 14:00:54;;;;;;;0.10;0.10;;;;;;;;;;4944960;28;20082;-89
2023/10/08 14:03:21;;;;;;;0.10;0.10;;;;;;;;;;4976544;28;20049;-88
2023/10/08 14:05:51;;;;;;;0.10;0.10;;;;;;;;;;4944445;28;20047;-88
2023/10/08 14:08:22;;;;;;;0.10;0.10;;;;;;;;;;4976666;28;20049;-87
2023/10/08 14:10:48;;;;;;;0.10;0.10;;;;;;;;;;4944531;28;20058;-88
2023/10/08 14:13:19;;;;;;;0.20;0.20;;;;;;;;;;4960505;28;20054;-88
2023/10/08 14:15:46;;;;;;;0.10;0.10;;;;;;;;;;4944982;28;20522;-88
2023/10/08 14:18:16;;;;;;;0.13;0.13;;;;;;;;;;4976098;28;20077;-88
2023/10/08 14:20:43;;;;;;;0.15;0.15;;;;;;;;;;4960301;28;20042;-88
2023/10/08 14:23:09;;;;;;;0.10;0.10;;;;;;;;;;4960433;28;20113;-90
2023/10/08 14:25:42;;;;;;;0.10;0.10;;;;;;;;;;4960403;28;20488;-91
2023/10/08 14:28:08;;;;;;;0.10;0.10;;;;;;;;;;4945847;28;20038;-89
2023/10/08 14:30:40;;;;;;;0.10;0.10;;;;;;;;;;4944323;28;20113;-89
2023/10/08 14:33:09;;;;;;;0.10;0.10;;;;;;;;;;4945315;28;20403;-88
2023/10/08 14:43:48;;;;;;;0.10;0.10;;;;;;;;;;4961646;28;20046;-87
2023/10/08 14:46:15;;;;;;;0.10;0.10;;;;;;;;;;4943541;28;20061;-87
2023/10/08 14:48:41;;;;;;;0.10;0.10;;;;;;;;;;4959924;28;20133;-87
2023/10/08 14:51:08;;;;;;;0.10;0.10;;;;;;;;;;4975893;28;20171;-87
2023/10/08 14:53:34;;;;;;;0.10;0.10;;;;;;;;;;4975590;28;20042;-87
2023/10/08 14:56:03;;;;;;;0.10;0.10;;;;;;;;;;4992970;28;20038;-89
2023/10/08 14:58:29;;;;;;;0.10;0.10;;;;;;;;;;4975595;28;20181;-88
2023/10/08 15:00:55;;;;;;;0.10;0.10;;;;;;;;;;4943382;28;20093;-88
2023/10/08 15:03:21;;;;;;;0.10;0.10;;;;;;;;;;4959498;28;20042;-85
2023/10/08 15:05:47;;;;;;;0.10;0.10;;;;;;;;;;4959381;28;20042;-85
2023/10/08 15:08:14;;;;;;;0.10;0.10;;;;;;;;;;4975350;28;20038;-84
2023/10/08 15:10:40;;;;;;;0.10;0.10;;;;;;;;;;4959556;28;20050;-85
2023/10/08 15:13:07;;;;;;;0.10;0.10;;;;;;;;;;4959601;28;20046;-85
2023/10/08 15:15:34;;;;;;;0.10;0.10;;;;;;;;;;4975414;28;20169;-85
2023/10/08 15:18:05;;;;;;;0.10;0.10;;;;;;;;;;4975390;28;20085;-85
2023/10/08 15:20:33;;;;;;;0.10;0.10;;;;;;;;;;4975521;28;20042;-85
2023/10/08 15:22:59;;;;;;;0.10;0.10;;;;;;;;;;4975341;28;20480;-86
2023/10/08 15:25:26;;;;;;;0.13;0.13;;;;;;;;;;4959771;28;20448;-85
2023/10/08 15:27:55;;;;;;;0.10;0.10;;;;;;;;;;4959833;28;20052;-85
2023/10/08 15:30:21;;;;;;;3.40;0.63;;;;;;;;;;4959218;28;20136;-85
2023/10/08 15:32:48;;;;;;;0.10;0.10;;;;;;;;;;4975441;28;20476;-84
2023/10/08 15:35:16;;;;;;;0.10;0.10;;;;;;;;;;4975131;28;20050;-85
2023/10/08 15:37:43;;;;;;;0.10;0.10;;;;;;;;;;4962189;28;20397;-85
2023/10/08 15:40:17;;;;;;;0.10;0.10;;;;;;;;;;4959165;28;20101;-84
2023/10/08 15:42:43;;;;;;;0.10;0.10;;;;;;;;;;4975368;28;20042;-84
2023/10/08 15:45:12;;;;;;;0.10;0.10;;;;;;;;;;4943155;28;20054;-85
2023/10/08 15:47:38;;;;;;;0.10;0.10;;;;;;;;;;4992644;28;20042;-84
2023/10/08 15:50:04;;;;;;;0.10;0.10;;;;;;;;;;4974781;28;20495;-84
2023/10/08 15:52:31;;;;;;;0.10;0.10;;;;;;;;;;4975154;28;20046;-84
2023/10/08 15:54:57;;;;;;;0.10;0.10;;;;;;;;;;4975611;28;20121;-84
2023/10/08 15:57:23;;;;;;;0.10;0.10;;;;;;;;;;4978508;28;20046;-84
2023/10/08 15:59:53;;;;;;;0.10;0.10;;;;;;;;;;4978560;28;20053;-84
2023/10/08 16:02:19;;;;;;;0.10;0.10;;;;;;;;;;4978620;28;20051;-84
2023/10/08 16:04:45;;;;;;;0.10;0.10;;;;;;;;;;4978819;28;20034;-84
2023/10/08 16:07:11;;;;;;;0.10;0.10;;;;;;;;;;4978729;28;20045;-84
2023/10/08 16:09:37;;;;;;;0.10;0.10;;;;;;;;;;4978772;28;20034;-84
2023/10/08 16:12:04;;;;;;;0.10;0.10;;;;;;;;;;4978835;28;20121;-85
2023/10/08 16:14:30;;;;;;;0.10;0.10;;;;;;;;;;4978460;28;20054;-84
2023/10/08 16:16:56;;;;;;;0.20;0.20;;;;;;;;;;4995861;28;20038;-84
2023/10/08 16:19:22;;;;;;;0.10;0.10;;;;;;;;;;4978687;28;20041;-85
2023/10/08 16:21:48;;;;;;;0.10;0.10;;;;;;;;;;4978347;28;20065;-84